To NAV CANADA Home Page Login to a new session Search on AWWS site Disclaimer Vers la page française équivalente Tips FAQ What's new on the site To the Forecasts and Observations / NOTAM section To "File a Flight Plan" website Publications and other links Update of the User's profile FIC Telephone Numbers My Weather Data Folder Route Weather Data Regional Weather Data Local Weather Data To the Forecasts and Observations / NOTAM section
Request Generated 09/19/2018 at 05:26:20 UTC . Weather information available at that time is displayed.

METAR/TAF

WHITEHORSE/ERIK NIELSEN INTL/YT    

METAR CYXY 190500Z 26003KT 15SM SCT080 07/M04 A3010 RMK AC4 SLP231=
METAR CYXY 190400Z 26003KT 15SM SCT080 06/M04 A3010 RMK AC4 SLP231=
METAR CYXY 190300Z 27006KT 40SM FEW065 FEW240 08/M03 A3009 RMK SC1CI1 SLP227=

TAF CYXY 182338Z 1900/1924 36005KT P6SM FEW060 FEW240
FM191200 VRB03KT P6SM SCT050
FM192100 36006KT P6SM SKC
RMK NXT FCST BY 190600Z=
Your time UTC time
Weather data provided by Environment Canada and NAV CANADA